sensor_id;sensor_type;location;lat;lon;timestamp;pressure;altitude;pressure_sealevel;temperature;humidity
63351;BME280;64988;51.058;17.040;2023-04-08T07:44:06;100760.16;;;9.53;58.09
63351;BME280;64988;51.058;17.040;2023-04-08T07:49:33;100787.41;;;9.48;56.56
63351;BME280;64988;51.058;17.040;2023-04-08T07:55:00;100791.00;;;9.88;56.49
63351;BME280;64988;51.058;17.040;2023-04-08T08:00:28;100786.84;;;9.82;54.79
63351;BME280;64988;51.058;17.040;2023-04-08T08:05:57;100782.53;;;9.80;55.65
63351;BME280;64988;51.058;17.040;2023-04-08T08:11:25;100793.78;;;10.38;55.12
63351;BME280;64988;51.058;17.040;2023-04-08T08:16:55;100794.44;;;11.64;51.85
63351;BME280;64988;51.058;17.040;2023-04-08T08:22:23;100805.16;;;11.65;50.11
63351;BME280;64988;51.058;17.040;2023-04-08T08:27:50;100794.38;;;11.89;49.90
63351;BME280;64988;51.058;17.040;2023-04-08T08:33:18;100803.34;;;12.24;47.42
63351;BME280;64988;51.058;17.040;2023-04-08T08:38:45;100808.81;;;12.80;46.89
63351;BME280;64988;51.058;17.040;2023-04-08T08:44:13;100811.28;;;12.83;47.15
63351;BME280;64988;51.058;17.040;2023-04-08T08:49:40;100816.81;;;12.59;47.39
63351;BME280;64988;51.058;17.040;2023-04-08T08:55:08;100823.38;;;12.79;47.26
63351;BME280;64988;51.058;17.040;2023-04-08T09:00:56;100828.97;;;12.42;47.28
63351;BME280;64988;51.058;17.040;2023-04-08T09:06:23;100837.53;;;12.25;47.44
63351;BME280;64988;51.058;17.040;2023-04-08T09:12:02;100846.41;;;12.27;48.21
63351;BME280;64988;51.058;17.040;2023-04-08T09:17:31;100844.72;;;12.37;47.02
63351;BME280;64988;51.058;17.040;2023-04-08T09:23:01;100853.09;;;12.45;47.48
63351;BME280;64988;51.058;17.040;2023-04-08T09:28:28;100862.50;;;12.75;46.98
63351;BME280;64988;51.058;17.040;2023-04-08T09:33:58;100865.97;;;12.88;46.07
63351;BME280;64988;51.058;17.040;2023-04-08T09:39:25;100871.44;;;13.10;45.22
63351;BME280;64988;51.058;17.040;2023-04-08T09:44:52;100872.78;;;13.38;44.16
63351;BME280;64988;51.058;17.040;2023-04-08T09:50:26;100863.53;;;14.37;43.24
63351;BME280;64988;51.058;17.040;2023-04-08T09:55:55;100867.88;;;14.91;42.58
63351;BME280;64988;51.058;17.040;2023-04-08T10:01:31;100872.97;;;15.05;40.86
63351;BME280;64988;51.058;17.040;2023-04-08T10:07:06;100874.28;;;14.90;41.10
63351;BME280;64988;51.058;17.040;2023-04-08T10:12:35;100883.78;;;14.75;40.11
63351;BME280;64988;51.058;17.040;2023-04-08T10:23:56;100896.53;;;14.22;41.18
63351;BME280;64988;51.058;17.040;2023-04-08T10:29:29;100884.13;;;14.40;41.10
63351;BME280;64988;51.058;17.040;2023-04-08T10:34:56;100894.09;;;14.07;42.19
63351;BME280;64988;51.058;17.040;2023-04-08T10:40:25;100878.84;;;14.80;40.86
63351;BME280;64988;51.058;17.040;2023-04-08T10:45:54;100885.41;;;15.68;39.50
63351;BME280;64988;51.058;17.040;2023-04-08T10:51:23;100880.59;;;16.77;38.34
63351;BME280;64988;51.058;17.040;2023-04-08T10:56:51;100881.13;;;16.90;36.14
63351;BME280;64988;51.058;17.040;2023-04-08T11:02:19;100892.81;;;16.83;36.28
63351;BME280;64988;51.058;17.040;2023-04-08T11:07:48;100892.41;;;17.24;34.98
63351;BME280;64988;51.058;17.040;2023-04-08T11:13:16;100889.41;;;17.54;35.85
63351;BME280;64988;51.058;17.040;2023-04-08T11:18:44;100892.28;;;17.53;35.22
63351;BME280;64988;51.058;17.040;2023-04-08T11:24:11;100885.31;;;17.95;34.26
63351;BME280;64988;51.058;17.040;2023-04-08T11:29:40;100873.66;;;19.07;35.46
63351;BME280;64988;51.058;17.040;2023-04-08T11:35:08;100884.94;;;20.06;32.37
63351;BME280;64988;51.058;17.040;2023-04-08T11:40:36;100879.41;;;19.48;31.89
63351;BME280;64988;51.058;17.040;2023-04-08T11:46:10;100890.41;;;18.08;33.20
63351;BME280;64988;51.058;17.040;2023-04-08T11:51:56;100881.66;;;17.87;35.67
63351;BME280;64988;51.058;17.040;2023-04-08T11:57:29;100883.75;;;18.46;34.21
63351;BME280;64988;51.058;17.040;2023-04-08T12:02:58;100880.69;;;19.69;33.30
63351;BME280;64988;51.058;17.040;2023-04-08T12:08:26;100881.38;;;18.60;32.67
63351;BME280;64988;51.058;17.040;2023-04-08T12:13:55;100882.75;;;17.66;33.70
63351;BME280;64988;51.058;17.040;2023-04-08T12:19:23;100882.19;;;17.63;34.32
63351;BME280;64988;51.058;17.040;2023-04-08T12:24:51;100891.34;;;17.35;34.83
63351;BME280;64988;51.058;17.040;2023-04-08T12:30:19;100876.06;;;17.42;34.74
63351;BME280;64988;51.058;17.040;2023-04-08T12:35:47;100875.22;;;17.78;33.51
63351;BME280;64988;51.058;17.040;2023-04-08T12:41:15;100874.81;;;18.53;33.37
63351;BME280;64988;51.058;17.040;2023-04-08T12:46:43;100876.72;;;18.78;32.08
63351;BME280;64988;51.058;17.040;2023-04-08T12:52:10;100861.50;;;17.88;32.86
63351;BME280;64988;51.058;17.040;2023-04-08T12:57:38;100857.00;;;18.67;32.16
63351;BME280;64988;51.058;17.040;2023-04-08T13:03:06;100854.50;;;18.38;33.05
63351;BME280;64988;51.058;17.040;2023-04-08T13:08:34;100851.75;;;18.20;33.28
63351;BME280;64988;51.058;17.040;2023-04-08T13:14:02;100849.75;;;17.77;33.31
63351;BME280;64988;51.058;17.040;2023-04-08T13:19:30;100856.56;;;17.00;34.59
63351;BME280;64988;51.058;17.040;2023-04-08T13:24:58;100858.75;;;16.96;34.50
63351;BME280;64988;51.058;17.040;2023-04-08T13:30:25;100844.91;;;17.99;35.48
63351;BME280;64988;51.058;17.040;2023-04-08T13:35:52;100848.72;;;19.10;32.87
63351;BME280;64988;51.058;17.040;2023-04-08T13:41:19;100844.41;;;18.74;31.91
63351;BME280;64988;51.058;17.040;2023-04-08T13:46:51;100855.03;;;17.89;33.07
63351;BME280;64988;51.058;17.040;2023-04-08T13:52:19;100853.03;;;17.26;33.64
63351;BME280;64988;51.058;17.040;2023-04-08T13:57:47;100846.53;;;17.92;32.85
63351;BME280;64988;51.058;17.040;2023-04-08T14:03:15;100847.16;;;18.21;32.89
63351;BME280;64988;51.058;17.040;2023-04-08T14:08:44;100851.38;;;17.06;34.75
63351;BME280;64988;51.058;17.040;2023-04-08T14:14:12;100852.28;;;17.34;36.13
63351;BME280;64988;51.058;17.040;2023-04-08T14:19:39;100845.41;;;17.67;35.40
63351;BME280;64988;51.058;17.040;2023-04-08T14:25:08;100841.16;;;18.17;34.70
63351;BME280;64988;51.058;17.040;2023-04-08T14:30:36;100847.25;;;18.11;34.88
63351;BME280;64988;51.058;17.040;2023-04-08T14:36:04;100849.13;;;17.93;34.35
63351;BME280;64988;51.058;17.040;2023-04-08T14:41:32;100846.63;;;18.53;32.75
63351;BME280;64988;51.058;17.040;2023-04-08T14:46:59;100860.66;;;18.05;34.51
63351;BME280;64988;51.058;17.040;2023-04-08T14:52:26;100855.75;;;17.63;35.11
63351;BME280;64988;51.058;17.040;2023-04-08T14:57:55;100848.75;;;17.61;33.32
63351;BME280;64988;51.058;17.040;2023-04-08T15:03:26;100839.38;;;17.63;34.43
63351;BME280;64988;51.058;17.040;2023-04-08T15:08:54;100848.31;;;17.28;35.24
63351;BME280;64988;51.058;17.040;2023-04-08T15:14:22;100852.81;;;17.10;34.82
63351;BME280;64988;51.058;17.040;2023-04-08T15:19:50;100841.47;;;17.42;35.10
63351;BME280;64988;51.058;17.040;2023-04-08T15:25:19;100858.16;;;17.39;35.34
63351;BME280;64988;51.058;17.040;2023-04-08T15:30:49;100851.19;;;16.71;35.76
63351;BME280;64988;51.058;17.040;2023-04-08T15:36:17;100846.34;;;16.07;37.12
63351;BME280;64988;51.058;17.040;2023-04-08T15:41:45;100861.25;;;15.94;39.21
63351;BME280;64988;51.058;17.040;2023-04-08T15:47:13;100858.34;;;15.36;39.59
63351;BME280;64988;51.058;17.040;2023-04-08T15:52:40;100857.31;;;15.28;39.82
63351;BME280;64988;51.058;17.040;2023-04-08T15:58:08;100855.59;;;15.57;40.14
63351;BME280;64988;51.058;17.040;2023-04-08T16:03:35;100852.34;;;15.72;39.92
63351;BME280;64988;51.058;17.040;2023-04-08T16:09:03;100867.53;;;15.45;40.22
63351;BME280;64988;51.058;17.040;2023-04-08T16:14:30;100876.13;;;15.10;40.82
63351;BME280;64988;51.058;17.040;2023-04-08T16:19:58;100870.28;;;15.14;40.73
63351;BME280;64988;51.058;17.040;2023-04-08T16:25:26;100874.19;;;15.21;40.86
